Latest Weather Observations for Central Arnhem Plateau

IDD60801

Issued at 8:05 am CST Thursday 24 July 2014 (issued every 30 minutes, with the page automatically refreshed every 10 minutes)

About weather observations | Map of weather stations | Latest weather observations for NT | Other Formats
Station Details ID: 014909 Name: CENTRAL ARNHEM PLATEAU Lat: -13.33 Lon: 133.09 Height: 416.0 m
Data from the previous 72 hours. | See also: Recent months for locations in Northern Territory
Date/Time
CST
Temp
°C
App
Temp
°C
Dew
Point
Rel
Hum
%
Delta-T
°C
Wind Press
QNH
hPa
Press
MSL
hPa
Rain
since 9 am
mm
Dir
 
Spd
km/h
Gust
km/h
Spd
kts
Gust
kts
24/08:00am 18.9 18.1 14.0 73 2.9 ENE 11 13 6 7 1016.9 - 0.0
24/07:30am 17.4 16.9 13.7 79 2.1 NE 9 11 5 6 1016.5 1014.5 0.0
24/07:00am 16.9 16.2 13.2 79 2.1 NE 9 11 5 6 1016.0 - 0.0
24/06:30am 16.9 16.1 12.8 77 2.3 NE 9 9 5 5 1015.8 1013.9 0.0
24/06:00am 17.3 16.1 12.8 75 2.6 ENE 11 13 6 7 1015.5 1013.6 0.0
24/05:30am 17.2 16.2 12.3 73 2.8 ENE 9 11 5 6 1015.4 1013.5 0.0
24/05:00am 17.4 15.9 11.9 70 3.1 ENE 11 11 6 6 1015.6 - 0.0
24/04:30am 17.8 16.5 11.4 66 3.6 ENE 9 11 5 6 1015.4 1013.5 0.0
24/04:00am 18.2 16.8 11.0 63 4.0 ENE 9 11 5 6 1015.6 - 0.0
24/03:30am 18.1 16.6 10.5 61 4.2 ENE 9 13 5 7 1015.5 1013.6 0.0
24/03:00am 17.8 16.0 9.4 58 4.5 NE 9 11 5 6 1015.4 1013.5 0.0
24/02:30am 18.3 16.4 9.1 55 4.9 ENE 9 13 5 7 1015.5 1013.6 0.0
24/02:00am 17.4 15.4 7.2 51 5.2 ENE 7 9 4 5 1015.7 - 0.0
24/01:30am 17.4 14.8 6.3 48 5.6 ENE 9 11 5 6 1015.9 1014.0 0.0
24/01:00am 17.8 15.6 6.3 47 5.8 E 7 9 4 5 1016.1 - 0.0
24/12:30am 17.1 14.7 5.1 45 5.9 E 7 9 4 5 1015.8 1013.9 0.0
24/12:00am 19.3 16.8 4.6 38 7.2 E 7 17 4 9 1015.5 1013.6 0.0
 
Date/Time
CST
Temp
°C
App
Temp
°C
Dew
Point
Rel
Hum
%
Delta-T
°C
Wind Press
QNH
hPa
Press
MSL
hPa
Rain
since 9 am
mm
Dir
 
Spd
km/h
Gust
km/h
Spd
kts
Gust
kts
23/11:30pm 18.1 16.1 2.4 35 7.3 NE 2 6 1 3 1015.5 1013.6 0.0
23/11:00pm 18.2 15.6 3.3 37 7.1 ESE 6 6 3 3 1015.5 - 0.0
23/10:30pm 18.4 17.1 4.2 39 6.9 CALM 0 0 0 0 1015.5 1013.6 0.0
23/10:00pm 19.3 17.1 3.1 34 7.7 SE 4 9 2 5 1015.4 - 0.0
23/09:30pm 21.6 18.4 3.3 30 8.9 SSE 9 9 5 5 1015.3 1013.4 0.0
23/09:00pm 20.8 18.7 1.6 28 9.0 SE 2 7 1 4 1015.2 1013.3 0.0
23/08:30pm 20.3 18.0 0.2 26 9.1 E 2 6 1 3 1015.0 1013.1 0.0
23/08:00pm 21.1 19.1 -0.2 24 9.7 CALM 0 0 0 0 1014.7 - 0.0
23/07:30pm 22.2 20.1 -0.5 22 10.3 CALM 0 2 0 1 1014.4 1012.4 0.0
23/07:00pm 25.7 22.6 0.4 19 12.0 SE 6 7 3 4 1014.1 - 0.0
23/06:30pm 26.6 23.3 0.4 18 12.5 SE 7 11 4 6 1013.7 1011.8 0.0
23/06:00pm 27.4 23.6 -0.6 16 13.2 ESE 9 13 5 7 1013.5 1011.6 0.0
23/05:30pm 27.9 24.7 -0.2 16 13.4 SE 6 9 3 5 1013.3 1011.4 0.0
23/05:00pm 28.4 25.2 -0.7 15 13.8 SSE 6 13 3 7 1013.2 - 0.0
23/04:30pm 28.3 24.9 -0.8 15 13.8 ESE 7 17 4 9 1013.1 1011.2 0.0
23/04:00pm 28.0 24.2 -1.0 15 13.7 SSE 9 17 5 9 1012.9 - 0.0
23/03:30pm 28.2 24.0 -0.9 15 13.8 S 11 19 6 10 1013.0 1011.1 0.0
23/03:00pm 28.1 22.6 -1.9 14 13.9 SE 17 24 9 13 1013.2 1011.3 0.0
23/02:30pm 27.6 23.7 1.2 18 12.9 SE 11 17 6 9 1013.6 1011.7 0.0
23/02:00pm 27.4 23.2 1.8 19 12.6 E 13 26 7 14 1014.2 - 0.0
23/01:30pm 27.2 22.5 0.8 18 12.8 SE 15 26 8 14 1014.7 1012.7 0.0
23/01:00pm 26.1 21.6 2.1 21 11.8 E 15 22 8 12 1015.3 - 0.0
23/12:30pm 26.2 21.8 2.8 22 11.7 ENE 15 20 8 11 1015.8 1013.9 0.0
23/12:00pm 25.3 21.9 3.9 25 10.8 ESE 11 17 6 9 1016.5 1014.5 0.0
23/11:30am 25.1 20.7 4.8 27 10.4 ENE 17 26 9 14 1016.9 1014.9 0.0
23/11:00am 25.0 20.4 3.6 25 10.7 E 17 24 9 13 1017.4 - 0.0
23/10:30am 23.8 19.9 7.0 34 8.9 E 17 24 9 13 1017.5 1015.6 0.0
23/10:00am 23.1 20.2 10.9 46 6.9 E 17 24 9 13 1017.7 - 0.0
23/09:30am 21.0 18.5 12.2 57 5.0 E 17 22 9 12 1017.8 1015.9 0.0
23/09:00am 19.4 17.8 12.7 65 3.8 E 13 17 7 9 1017.8 1015.9 0.0
23/08:30am 18.3 17.5 13.0 71 3.0 ESE 9 13 5 7 1017.6 1015.7 0.0
23/08:00am 16.9 16.4 12.8 77 2.3 SE 7 11 4 6 1017.3 - 0.0
23/07:30am 14.6 13.8 11.0 79 1.9 ESE 6 7 3 4 1016.9 1014.9 0.0
23/07:00am 13.2 11.7 9.3 77 2.0 ESE 7 9 4 5 1016.8 - 0.0
23/06:30am 15.2 14.1 11.8 80 1.9 SE 9 13 5 7 1016.5 1014.5 0.0
23/06:00am 15.6 14.1 12.0 79 2.0 SE 11 15 6 8 1016.3 1014.4 0.0
23/05:30am 15.8 14.3 11.8 77 2.2 SE 11 13 6 7 1016.3 1014.4 0.0
23/05:00am 15.9 14.7 11.7 76 2.3 SE 9 11 5 6 1016.3 - 0.0
23/04:30am 16.3 15.1 11.5 73 2.6 SE 9 13 5 7 1016.1 1014.2 0.0
23/04:00am 16.5 15.2 11.4 72 2.8 SSE 9 11 5 6 1015.9 - 0.0
23/03:30am 16.8 15.5 11.3 70 3.0 SE 9 13 5 7 1016.1 1014.2 0.0
23/03:00am 17.0 15.3 11.1 68 3.2 SE 11 13 6 7 1016.2 1014.3 0.0
23/02:30am 17.2 15.9 11.2 68 3.3 SE 9 11 5 6 1016.5 1014.5 0.0
23/02:00am 17.7 16.4 11.3 66 3.5 ESE 9 11 5 6 1016.8 - 0.0
23/01:30am 18.1 17.1 11.0 63 3.9 E 7 9 4 5 1017.0 1015.0 0.0
23/01:00am 18.5 17.4 10.8 61 4.2 E 7 9 4 5 1017.3 - 0.0
23/12:30am 18.9 17.4 10.5 58 4.6 E 9 13 5 7 1017.4 1015.5 0.0
23/12:00am 19.2 17.3 10.5 57 4.8 ENE 11 13 6 7 1017.3 1015.4 0.0
 
Date/Time
CST
Temp
°C
App
Temp
°C
Dew
Point
Rel
Hum
%
Delta-T
°C
Wind Press
QNH
hPa
Press
MSL
hPa
Rain
since 9 am
mm
Dir
 
Spd
km/h
Gust
km/h
Spd
kts
Gust
kts
22/11:30pm 18.4 17.0 9.5 56 4.8 ENE 7 9 4 5 1017.2 1015.3 0.0
22/11:00pm 18.9 18.6 8.8 52 5.4 CALM 0 7 0 4 1016.9 - 0.0
22/10:30pm 18.7 18.4 8.7 52 5.3 CALM 0 0 0 0 1016.7 1014.7 0.0
22/10:00pm 19.4 17.8 8.1 48 6.0 E 6 7 3 4 1016.6 - 0.0
22/09:30pm 20.9 19.8 9.8 49 6.1 E 6 9 3 5 1016.6 1014.6 0.0
22/09:00pm 20.8 19.1 8.4 45 6.6 E 7 9 4 5 1016.5 1014.5 0.0
22/08:30pm 22.3 20.0 9.1 43 7.2 ENE 11 15 6 8 1016.1 1014.2 0.0
22/08:00pm 23.0 20.7 9.0 41 7.7 E 11 15 6 8 1015.8 - 0.0
22/07:30pm 23.2 20.8 8.5 39 8.0 ENE 11 15 6 8 1015.5 1013.6 0.0
22/07:00pm 23.7 21.4 8.9 39 8.1 ENE 11 15 6 8 1015.2 - 0.0
22/06:30pm 24.6 21.7 8.1 35 9.0 E 13 17 7 9 1014.9 1013.0 0.0
22/06:00pm 25.3 21.6 7.9 33 9.4 E 17 22 9 12 1014.6 1012.6 0.0
22/05:30pm 26.2 22.8 7.7 31 10.1 E 15 22 8 12 1014.3 1012.3 0.0
22/05:00pm 26.6 22.3 7.1 29 10.5 E 19 28 10 15 1014.2 - 0.0
22/04:30pm 27.0 23.1 6.9 28 10.8 E 17 24 9 13 1014.2 1012.2 0.0
22/04:00pm 27.3 22.1 5.6 25 11.4 E 22 32 12 17 1014.2 - 0.0
22/03:30pm 26.8 20.9 5.7 26 11.1 E 26 33 14 18 1014.3 1012.3 0.0
22/03:00pm 26.6 20.5 5.0 25 11.2 E 26 33 14 18 1014.7 1012.7 0.0
22/02:30pm 26.2 20.6 5.2 26 10.9 ENE 24 33 13 18 1014.9 1013.0 0.0
22/02:00pm 26.7 19.9 5.1 25 11.3 E 30 43 16 23 1015.2 - 0.0
22/01:30pm 26.6 19.5 3.8 23 11.6 ESE 30 41 16 22 1015.8 1013.9 0.0
22/01:00pm 26.6 19.8 3.2 22 11.8 ESE 28 39 15 21 1016.3 - 0.0
22/12:30pm 25.9 17.7 2.6 22 11.5 E 35 48 19 26 1016.9 1014.9 0.0
22/12:00pm 26.1 17.2 0.7 19 12.2 ESE 37 48 20 26 1017.5 1015.6 0.0
22/11:30am 25.8 17.3 1.2 20 11.9 E 35 54 19 29 1018.2 1016.3 0.0
22/11:26am 25.7 17.1 0.4 19 12.0 E 35 54 19 29 1018.1 - 0.0
22/11:00am 23.9 16.2 3.2 26 10.2 E 33 50 18 27 1018.5 - 0.0
22/10:56am 24.9 17.4 3.5 25 10.7 E 32 50 17 27 1018.5 - 0.0
22/10:30am 24.5 16.6 4.3 27 10.2 E 35 44 19 24 1018.7 1016.8 0.0
22/10:00am 23.3 17.2 6.6 34 8.8 E 28 41 15 22 1019.2 - 0.0
22/09:30am 21.8 17.5 10.9 50 6.1 E 24 33 13 18 1019.2 1017.3 0.0
22/09:00am 19.8 17.5 14.2 70 3.3 E 19 24 10 13 1019.0 1017.0 -
22/08:30am 17.6 15.2 13.9 79 2.1 E 19 26 10 14 1018.8 1016.9 -
22/08:00am 16.4 14.7 13.5 83 1.7 E 15 20 8 11 1018.6 - -
22/07:30am 15.9 14.5 13.4 85 1.4 ESE 13 17 7 9 1018.1 1016.2 -
22/07:00am 15.7 14.2 13.2 85 1.4 ESE 13 15 7 8 1017.8 - -
22/06:30am 15.7 14.6 13.0 84 1.5 ESE 11 15 6 8 1017.6 1015.7 -
22/06:00am 16.0 15.3 13.1 83 1.6 ESE 9 9 5 5 1017.4 1015.5 -
22/05:30am 16.4 15.7 13.3 82 1.8 SE 9 11 5 6 1017.1 1015.2 -
22/05:00am 16.5 15.5 13.4 82 1.8 ESE 11 13 6 7 1017.1 - -
22/04:30am 16.6 15.4 12.9 79 2.1 SE 11 13 6 7 1017.0 1015.0 -
22/04:00am 16.9 15.6 12.6 76 2.4 E 11 13 6 7 1017.1 - -
22/03:30am 17.4 16.5 12.7 74 2.7 E 9 13 5 7 1017.1 1015.2 -
22/03:00am 18.0 16.4 12.9 72 2.9 E 13 17 7 9 1017.3 1015.4 -
22/02:30am 18.2 16.9 12.4 69 3.3 E 11 15 6 8 1017.5 1015.6 -
22/02:00am 18.6 16.9 12.4 67 3.5 E 13 17 7 9 1017.5 - -
22/01:30am 19.0 17.2 12.0 64 3.9 E 13 17 7 9 1017.6 1015.7 -
22/01:00am 19.5 17.6 11.8 61 4.3 E 13 17 7 9 1017.7 - -
22/12:00am 20.3 17.8 11.0 55 5.2 E 15 20 8 11 1017.9 1016.0 0.0
 
Date/Time
CST
Temp
°C
App
Temp
°C
Dew
Point
Rel
Hum
%
Delta-T
°C
Wind Press
QNH
hPa
Press
MSL
hPa
Rain
since 9 am
mm
Dir
 
Spd
km/h
Gust
km/h
Spd
kts
Gust
kts
21/11:30pm 20.3 18.0 8.9 48 6.1 E 11 15 6 8 1018.1 1016.2 0.0
21/11:00pm 20.5 17.6 6.4 40 7.2 ESE 11 15 6 8 1018.2 - 0.0
21/10:30pm 21.2 17.5 6.3 38 7.7 ESE 15 19 8 10 1018.3 1016.4 0.0
21/10:00pm 21.6 18.4 5.1 34 8.3 ESE 11 13 6 7 1018.3 - 0.0
21/09:30pm 22.0 19.2 5.0 33 8.6 ESE 9 9 5 5 1018.1 1016.2 0.0
21/09:00pm 22.6 19.8 5.1 32 8.9 E 9 11 5 6 1017.8 1015.9 0.0
21/08:30pm 23.2 20.0 5.1 31 9.2 E 11 15 6 8 1017.6 1015.7 0.0
21/08:00pm 23.9 21.2 5.8 31 9.4 E 9 11 5 6 1017.1 - 0.0
21/07:30pm 24.7 21.6 5.5 29 9.9 ESE 11 11 6 6 1016.8 1014.8 0.0
21/07:00pm 25.2 22.5 5.4 28 10.3 ESE 9 13 5 7 1016.3 - 0.0
21/06:30pm 26.2 22.6 5.2 26 10.9 SE 13 19 7 10 1015.7 1013.8 0.0
21/06:00pm 27.0 22.7 5.3 25 11.4 SE 17 22 9 12 1015.4 1013.5 0.0
21/05:30pm 28.1 23.7 5.0 23 12.1 ESE 17 26 9 14 1015.2 1013.3 0.0
21/05:00pm 28.5 23.5 3.4 20 12.8 ESE 19 26 10 14 1014.9 - 0.0
21/04:30pm 28.7 23.2 2.1 18 13.3 SE 20 30 11 16 1014.9 1013.0 0.0
21/04:00pm 29.2 24.1 0.8 16 13.9 SE 17 26 9 14 1014.9 - 0.0
21/03:30pm 28.7 23.7 1.3 17 13.5 ESE 17 26 9 14 1014.9 1013.0 0.0
21/03:00pm 28.9 24.0 2.2 18 13.4 E 17 24 9 13 1015.0 1013.1 0.0
21/02:30pm 27.9 23.0 2.2 19 12.8 ESE 17 26 9 14 1015.3 1013.4 0.0
21/02:00pm 28.2 23.2 4.5 22 12.3 ESE 20 30 11 16 1015.5 - 0.0
21/01:30pm 27.8 22.3 4.2 22 12.2 E 22 30 12 16 1015.9 1014.0 0.0
21/01:00pm 27.5 21.7 4.5 23 11.9 SE 24 35 13 19 1016.3 - 0.0
21/12:30pm 26.4 20.6 4.2 24 11.4 ESE 24 35 13 19 1016.9 1014.9 0.0
21/12:00pm 26.2 20.4 4.6 25 11.1 ESE 24 35 13 19 1017.5 1015.6 0.0
21/11:30am 25.7 20.4 4.8 26 10.7 ESE 22 32 12 17 1017.8 1015.9 0.0
21/11:00am 25.4 19.0 5.1 27 10.5 E 28 37 15 20 1018.2 - 0.0
21/10:30am 24.6 19.2 6.4 31 9.6 ESE 24 37 13 20 1018.2 1016.3 0.0
21/10:00am 23.7 18.4 6.9 34 8.9 E 24 37 13 20 1018.4 - 0.0
21/09:30am 21.9 17.3 8.1 41 7.4 ESE 22 30 12 16 1018.5 1016.6 0.0
21/09:00am 21.1 18.3 11.2 53 5.6 ESE 17 20 9 11 1018.5 1016.6 0.0
21/08:30am 18.6 16.9 12.4 67 3.5 ESE 13 19 7 10 1018.3 1016.4 0.0

Other Formats:

Comma delimited format used in spreadsheet applications
http://www.bom.gov.au/fwo/IDD60801/IDD60801.94141.axf

JavaScript Object Notation format (JSON) in row-major order
http://www.bom.gov.au/fwo/IDD60801/IDD60801.94141.json